createdAt,value
2022-08-19T00:04:47.681Z,5.88
2022-08-19T00:09:50.551Z,6.32
2022-08-19T00:14:55.324Z,5.78
2022-08-19T00:19:58.217Z,5.30
2022-08-19T00:25:02.236Z,5.32
2022-08-19T00:30:08.419Z,5.68
2022-08-19T00:35:11.759Z,5.93
2022-08-19T00:40:15.184Z,5.82
2022-08-19T00:45:26.513Z,6.10
2022-08-19T00:50:31.104Z,5.88
2022-08-19T00:55:34.673Z,6.40
2022-08-19T01:00:38.532Z,5.72
2022-08-19T01:05:44.243Z,6.13
2022-08-19T01:10:55.484Z,6.00
2022-08-19T01:16:08.088Z,6.00
2022-08-19T01:21:49.617Z,6.28
2022-08-19T01:31:56.485Z,5.68
2022-08-19T01:36:59.262Z,6.90
2022-08-19T01:42:04.269Z,6.43
2022-08-19T01:47:08.208Z,6.90
2022-08-19T01:52:10.982Z,6.85
2022-08-19T01:57:15.730Z,7.00
2022-08-19T02:02:18.588Z,6.80
2022-08-19T02:07:22.659Z,7.05
2022-08-19T02:12:25.526Z,6.13
2022-08-19T02:17:29.921Z,7.13
2022-08-19T02:22:33.159Z,6.47
2022-08-19T02:27:36.221Z,6.38
2022-08-19T02:32:44.632Z,7.13
2022-08-19T02:38:07.383Z,7.03
2022-08-19T02:43:10.891Z,6.53
2022-08-19T02:48:21.816Z,6.93
2022-08-19T02:53:28.891Z,6.70
2022-08-19T02:58:31.717Z,6.65
2022-08-19T03:03:34.942Z,6.93
2022-08-19T03:08:39.746Z,6.47
2022-08-19T03:13:44.407Z,6.85
2022-08-19T03:18:48.181Z,7.05
2022-08-19T03:24:02.236Z,7.10
2022-08-19T03:29:06.659Z,8.02
2022-08-19T03:34:14.998Z,7.10
2022-08-19T03:39:18.520Z,7.28
2022-08-19T03:44:23.187Z,7.57
2022-08-19T03:49:30.532Z,6.65
2022-08-19T03:54:34.242Z,7.03
2022-08-19T03:59:38.759Z,7.57
2022-08-19T04:04:44.773Z,11.15
2022-08-19T04:09:47.730Z,8.07
2022-08-19T04:14:50.562Z,6.53
2022-08-19T04:19:53.414Z,8.15
2022-08-19T04:24:58.998Z,6.93
2022-08-19T04:30:02.047Z,7.20
2022-08-19T04:35:17.890Z,6.90
2022-08-19T04:40:40.596Z,6.32
2022-08-19T04:45:45.539Z,6.90
2022-08-19T04:50:49.343Z,7.50
2022-08-19T04:55:52.858Z,6.88
2022-08-19T05:00:55.812Z,7.38
2022-08-19T05:05:59.475Z,7.40
2022-08-19T05:11:02.440Z,8.15
2022-08-19T05:16:06.227Z,7.15
2022-08-19T05:21:36.572Z,7.85
2022-08-19T05:26:43.866Z,7.15
2022-08-19T05:31:50.352Z,7.55
2022-08-19T05:36:59.716Z,6.32
2022-08-19T05:42:08.142Z,6.13
2022-08-19T05:47:15.879Z,6.10
2022-08-19T05:52:25.576Z,6.22
2022-08-19T05:57:30.141Z,6.45
2022-08-19T06:02:33.095Z,6.35
2022-08-19T06:07:40.582Z,6.28
2022-08-19T06:12:43.839Z,5.88
2022-08-19T06:17:46.885Z,5.38
2022-08-19T06:22:52.443Z,5.43
2022-08-19T06:28:14.791Z,6.15
2022-08-19T06:33:18.730Z,5.53
2022-08-19T06:38:23.907Z,5.68
2022-08-19T06:43:28.110Z,5.53
2022-08-19T06:48:35.548Z,5.47
2022-08-19T06:53:40.614Z,5.37
2022-08-19T06:58:44.195Z,5.85
2022-08-19T07:03:47.510Z,5.90
2022-08-19T07:08:52.677Z,5.43
2022-08-19T07:14:00.118Z,6.10
2022-08-19T07:19:11.826Z,7.93
2022-08-19T07:24:19.177Z,6.80
2022-08-19T07:29:25.818Z,6.90
2022-08-19T07:34:38.173Z,7.37
2022-08-19T07:39:42.939Z,9.82
2022-08-19T07:44:50.208Z,7.43
2022-08-19T07:49:53.596Z,5.97
2022-08-19T07:54:56.523Z,6.15
2022-08-19T07:59:59.912Z,8.90
2022-08-19T08:05:21.062Z,7.38
2022-08-19T08:10:24.237Z,7.43
2022-08-19T08:15:27.590Z,5.50
2022-08-19T08:20:32.211Z,13.48
2022-08-19T08:25:37.298Z,4.78
2022-08-19T08:30:45.138Z,5.55
2022-08-19T08:35:48.759Z,4.72
2022-08-19T08:41:03.295Z,4.70
2022-08-19T08:46:35.708Z,5.20
2022-08-19T08:52:05.705Z,8.95
2022-08-19T08:57:27.533Z,12.32
2022-08-19T09:02:33.725Z,5.07
2022-08-19T09:07:57.374Z,5.00
2022-08-19T09:13:19.111Z,9.52
2022-08-19T09:18:22.105Z,4.45
2022-08-19T09:23:27.036Z,6.47
2022-08-19T09:28:32.531Z,6.20
2022-08-19T09:33:36.014Z,5.10
2022-08-19T09:38:43.469Z,19.48
2022-08-19T09:43:53.107Z,4.70
2022-08-19T09:49:06.185Z,4.72
2022-08-19T09:54:11.360Z,4.03
2022-08-19T09:59:14.435Z,3.72
2022-08-19T10:04:20.126Z,4.40
2022-08-19T10:09:33.727Z,4.20
2022-08-19T10:14:37.430Z,4.13
2022-08-19T10:19:42.281Z,4.22
2022-08-19T10:24:58.180Z,3.53
2022-08-19T10:30:01.114Z,3.97
2022-08-19T10:35:09.110Z,3.72
2022-08-19T10:40:12.687Z,4.13
2022-08-19T10:45:15.627Z,3.80
2022-08-19T10:50:37.249Z,4.40
2022-08-19T10:55:59.322Z,3.40
2022-08-19T11:01:02.183Z,4.47
2022-08-19T11:06:08.876Z,3.25
2022-08-19T11:11:13.395Z,3.55
2022-08-19T11:16:24.555Z,3.88
2022-08-19T11:21:34.365Z,3.67
2022-08-19T11:26:39.661Z,3.70
2022-08-19T11:31:48.227Z,4.07
2022-08-19T11:36:52.904Z,3.78
2022-08-19T11:41:58.247Z,3.53
2022-08-19T11:47:09.334Z,3.90
2022-08-19T11:52:12.453Z,3.45
2022-08-19T11:57:17.872Z,3.50
2022-08-19T12:02:20.733Z,4.05
2022-08-19T12:07:23.620Z,3.58
2022-08-19T12:12:27.728Z,4.78
2022-08-19T12:17:31.796Z,4.45
2022-08-19T12:22:36.125Z,4.40
2022-08-19T12:27:41.668Z,3.92
2022-08-19T12:32:45.643Z,4.10
2022-08-19T12:37:56.608Z,3.55
2022-08-19T12:43:00.617Z,3.50
2022-08-19T12:48:03.862Z,4.93
2022-08-19T12:53:27.110Z,4.18
2022-08-19T12:58:30.694Z,4.35
2022-08-19T13:03:36.417Z,5.10
2022-08-19T13:08:41.426Z,5.07
2022-08-19T13:13:49.325Z,5.88
2022-08-19T13:18:53.014Z,6.53
2022-08-19T13:23:55.828Z,6.65
2022-08-19T13:29:17.501Z,7.30
2022-08-19T13:34:34.898Z,6.63
2022-08-19T13:39:38.435Z,6.82
2022-08-19T13:44:41.372Z,7.15
2022-08-19T13:49:44.140Z,7.10
2022-08-19T13:54:49.315Z,7.50
2022-08-19T13:59:52.691Z,7.32
2022-08-19T14:04:55.467Z,4.20
2022-08-19T14:09:58.276Z,3.40
2022-08-19T14:15:04.081Z,3.78
2022-08-19T14:20:10.963Z,3.50
2022-08-19T14:25:19.590Z,3.90
2022-08-19T14:30:33.411Z,3.35
2022-08-19T14:35:37.194Z,3.30
2022-08-19T14:40:41.612Z,3.20
2022-08-19T14:45:44.774Z,3.38
2022-08-19T14:50:47.766Z,3.17
2022-08-19T14:55:50.883Z,3.13
2022-08-19T15:00:54.215Z,2.75
2022-08-19T15:05:58.747Z,2.95
2022-08-19T15:11:02.958Z,2.60
2022-08-19T15:16:06.109Z,3.00
2022-08-19T15:21:26.975Z,3.53
2022-08-19T15:26:33.302Z,3.83
2022-08-19T15:31:38.077Z,2.15
2022-08-19T15:36:41.601Z,1.88
2022-08-19T15:41:47.199Z,2.65
2022-08-19T15:46:50.172Z,3.22
2022-08-19T15:51:54.519Z,2.63
2022-08-19T15:57:15.825Z,2.33
2022-08-19T16:02:39.814Z,2.10
2022-08-19T16:07:43.232Z,3.13
2022-08-19T16:12:46.284Z,2.10
2022-08-19T16:17:55.426Z,2.67
2022-08-19T16:23:00.377Z,2.40
2022-08-19T16:28:07.994Z,2.58
2022-08-19T16:33:11.705Z,2.00
2022-08-19T16:38:14.577Z,2.65
2022-08-19T16:43:17.452Z,1.95
2022-08-19T16:48:26.408Z,2.40
2022-08-19T16:53:32.021Z,2.30
2022-08-19T16:58:36.088Z,2.97
2022-08-19T17:03:39.974Z,2.60
2022-08-19T17:08:48.093Z,2.38
2022-08-19T17:13:52.709Z,2.72
2022-08-19T17:18:58.655Z,2.50
2022-08-19T17:24:06.169Z,2.30
2022-08-19T17:29:09.889Z,2.65
2022-08-19T17:34:12.734Z,2.47
2022-08-19T17:39:15.620Z,2.33
2022-08-19T17:44:19.402Z,2.35
2022-08-19T17:49:22.554Z,2.63
2022-08-19T17:54:25.630Z,3.00
2022-08-19T17:59:37.636Z,3.05
2022-08-19T18:04:41.397Z,2.63
2022-08-19T18:09:51.721Z,3.47
2022-08-19T18:14:55.639Z,3.00
2022-08-19T18:19:58.485Z,2.45
2022-08-19T18:25:24.308Z,2.83
2022-08-19T18:30:34.056Z,3.00
2022-08-19T18:35:39.266Z,3.47
2022-08-19T18:41:01.065Z,2.03
2022-08-19T18:46:22.245Z,2.35
2022-08-19T18:51:30.147Z,2.50
2022-08-19T18:56:33.332Z,2.95
2022-08-19T19:01:39.628Z,3.20
2022-08-19T19:06:43.397Z,2.80
2022-08-19T19:11:51.175Z,3.70
2022-08-19T19:16:55.436Z,2.65
2022-08-19T19:21:59.339Z,2.67
2022-08-19T19:27:08.444Z,2.35
2022-08-19T19:32:29.528Z,2.30
2022-08-19T19:37:33.165Z,2.55
2022-08-19T19:42:36.407Z,2.63
2022-08-19T19:47:39.872Z,2.50
2022-08-19T19:52:48.311Z,2.88
2022-08-19T19:57:52.675Z,3.35
2022-08-19T20:02:56.043Z,3.00
2022-08-19T20:08:17.488Z,3.00
2022-08-19T20:13:22.288Z,3.25
2022-08-19T20:18:25.394Z,4.13
2022-08-19T20:23:28.270Z,2.67
2022-08-19T20:28:31.971Z,4.18
2022-08-19T20:33:35.180Z,4.00
2022-08-19T20:38:41.959Z,4.30
2022-08-19T20:43:44.715Z,6.18
2022-08-19T20:48:47.729Z,6.72
2022-08-19T20:53:50.595Z,5.97
2022-08-19T20:58:57.848Z,7.25
2022-08-19T21:04:03.426Z,6.67
2022-08-19T21:09:06.489Z,7.50
2022-08-19T21:14:09.378Z,7.50
2022-08-19T21:19:12.917Z,7.95
2022-08-19T21:24:15.728Z,8.10
2022-08-19T21:29:18.689Z,7.30
2022-08-19T21:34:21.486Z,8.38
2022-08-19T21:39:24.531Z,9.63
2022-08-19T21:44:27.433Z,8.73
2022-08-19T21:49:31.458Z,9.27
2022-08-19T21:54:37.858Z,10.20
2022-08-19T21:59:44.114Z,10.20
2022-08-19T22:04:48.433Z,9.40
2022-08-19T22:09:51.770Z,9.02
2022-08-19T22:14:56.042Z,9.30
2022-08-19T22:19:59.038Z,9.50
2022-08-19T22:25:31.520Z,10.05
2022-08-19T22:30:38.214Z,10.00
2022-08-19T22:35:44.697Z,9.90
2022-08-19T22:40:50.435Z,10.93
2022-08-19T22:45:56.104Z,10.00
2022-08-19T22:51:19.522Z,9.82
2022-08-19T22:56:22.493Z,9.93
2022-08-19T23:01:29.836Z,11.20
2022-08-19T23:06:36.369Z,10.02
2022-08-19T23:11:41.712Z,9.82
2022-08-19T23:16:50.709Z,10.07
2022-08-19T23:21:54.133Z,9.10
2022-08-19T23:27:15.869Z,7.70
2022-08-19T23:32:21.017Z,6.60
2022-08-19T23:37:25.484Z,7.50
2022-08-19T23:42:28.990Z,7.63
2022-08-19T23:47:31.951Z,6.57
2022-08-19T23:52:44.815Z,5.82
2022-08-19T23:57:47.887Z,5.95
